Time;durP1;ratioP1;P1;durP2;ratioP2;P2;SDS_P1;SDS_P2;PMS_P1;PMS_P2;Temp;Humidity;BMP_temperature;BMP_pressure;BME280_temperature;BME280_humidity;BME280_pressure;Samples;Min_cycle;Max_cycle;Signal;HPM_P1;HPM_P2
2022/07/29 00:01:04;;;;;;;4.05;1.50;;;;;;;;;;4962289;28;20047;-60
2022/07/29 00:06:34;;;;;;;3.92;1.50;;;;;;;;;;4966178;28;20518;-60
2022/07/29 00:09:00;;;;;;;6.25;2.00;;;;;;;;;;4966295;28;20034;-60
2022/07/29 00:11:27;;;;;;;13.50;1.80;;;;;;;;;;4964669;28;20046;-61
2022/07/29 00:13:53;;;;;;;7.78;1.92;;;;;;;;;;4965003;28;20054;-61
2022/07/29 00:16:20;;;;;;;6.05;1.63;;;;;;;;;;4966369;28;20097;-60
2022/07/29 00:18:47;;;;;;;11.65;1.90;;;;;;;;;;4964299;28;20464;-61
2022/07/29 00:21:13;;;;;;;4.85;1.80;;;;;;;;;;4964275;28;22451;-61
2022/07/29 00:23:40;;;;;;;7.82;1.75;;;;;;;;;;4966840;28;20411;-61
2022/07/29 00:26:07;;;;;;;4.97;1.60;;;;;;;;;;4965418;28;20039;-61
2022/07/29 00:28:33;;;;;;;10.10;1.80;;;;;;;;;;4963821;28;20042;-61
2022/07/29 00:31:00;;;;;;;7.18;1.63;;;;;;;;;;4963686;28;20066;-59
2022/07/29 00:33:26;;;;;;;6.68;1.77;;;;;;;;;;4964691;28;21736;-61
2022/07/29 00:35:53;;;;;;;6.95;1.92;;;;;;;;;;4964366;28;21809;-60
2022/07/29 00:38:20;;;;;;;4.35;1.42;;;;;;;;;;4967111;28;20659;-60
2022/07/29 00:40:47;;;;;;;7.78;1.80;;;;;;;;;;4963850;28;20399;-60
2022/07/29 00:43:14;;;;;;;6.30;2.15;;;;;;;;;;4966484;28;20050;-62
2022/07/29 00:45:44;;;;;;;5.13;1.75;;;;;;;;;;4964027;28;20038;-60
2022/07/29 00:48:11;;;;;;;5.55;1.77;;;;;;;;;;4968366;28;20042;-60
2022/07/29 00:50:37;;;;;;;6.63;1.77;;;;;;;;;;4964884;28;20657;-61
2022/07/29 00:53:04;;;;;;;10.23;2.05;;;;;;;;;;4965084;28;20047;-60
2022/07/29 00:55:31;;;;;;;5.88;1.80;;;;;;;;;;4964400;28;20691;-62
2022/07/29 00:57:58;;;;;;;8.65;1.95;;;;;;;;;;4964541;28;20046;-61
2022/07/29 01:00:26;;;;;;;11.40;1.92;;;;;;;;;;4963423;28;20043;-60
2022/07/29 01:02:53;;;;;;;5.30;1.77;;;;;;;;;;4965666;28;20137;-60
2022/07/29 01:05:24;;;;;;;5.80;1.85;;;;;;;;;;4948591;28;20046;-61
2022/07/29 01:07:53;;;;;;;8.18;1.70;;;;;;;;;;4964870;28;20145;-62
2022/07/29 01:10:21;;;;;;;8.93;1.73;;;;;;;;;;4964664;28;20067;-62
2022/07/29 01:12:48;;;;;;;8.68;1.95;;;;;;;;;;4964122;28;20058;-60
2022/07/29 01:15:15;;;;;;;7.28;1.65;;;;;;;;;;4964484;28;20038;-61
2022/07/29 01:17:47;;;;;;;6.60;1.90;;;;;;;;;;4964327;28;20120;-62
2022/07/29 01:20:29;;;;;;;6.55;1.65;;;;;;;;;;4965883;28;20074;-61
2022/07/29 01:23:09;;;;;;;5.38;1.70;;;;;;;;;;4965192;28;20117;-61
2022/07/29 01:25:54;;;;;;;8.02;1.75;;;;;;;;;;4965050;28;20047;-61
2022/07/29 01:28:39;;;;;;;6.55;1.88;;;;;;;;;;4965012;28;20046;-61
2022/07/29 01:31:08;;;;;;;7.75;2.10;;;;;;;;;;4965513;28;20050;-61
2022/07/29 01:33:48;;;;;;;8.38;2.17;;;;;;;;;;4964115;28;20039;-59
2022/07/29 01:36:21;;;;;;;9.50;2.20;;;;;;;;;;4966083;28;20129;-62
2022/07/29 01:38:55;;;;;;;9.07;2.10;;;;;;;;;;4967298;28;20181;-59
2022/07/29 01:41:22;;;;;;;7.32;2.20;;;;;;;;;;4967678;28;20089;-60
2022/07/29 01:43:54;;;;;;;6.25;2.03;;;;;;;;;;4969357;28;20154;-61
2022/07/29 01:46:28;;;;;;;8.30;2.08;;;;;;;;;;4967280;28;21866;-62
2022/07/29 01:48:58;;;;;;;11.82;2.05;;;;;;;;;;4968738;28;20185;-60
2022/07/29 01:51:30;;;;;;;8.55;2.17;;;;;;;;;;4966189;28;20590;-60
2022/07/29 01:54:07;;;;;;;5.90;1.83;;;;;;;;;;4967764;28;20050;-61
2022/07/29 01:56:35;;;;;;;11.10;2.13;;;;;;;;;;4967108;28;20043;-61
2022/07/29 01:59:04;;;;;;;7.82;2.17;;;;;;;;;;4967649;28;20042;-61
2022/07/29 02:01:32;;;;;;;5.90;2.08;;;;;;;;;;4966232;28;20057;-61
2022/07/29 02:04:00;;;;;;;10.10;1.90;;;;;;;;;;4966861;28;20055;-61
2022/07/29 02:06:27;;;;;;;7.68;1.83;;;;;;;;;;4949130;28;20027;-60
2022/07/29 02:08:54;;;;;;;9.45;2.25;;;;;;;;;;4968242;28;20475;-59
2022/07/29 02:11:21;;;;;;;7.43;2.20;;;;;;;;;;4967137;28;20197;-61
2022/07/29 02:13:49;;;;;;;5.93;2.13;;;;;;;;;;4966754;28;20618;-60
2022/07/29 02:16:18;;;;;;;6.20;2.15;;;;;;;;;;4968065;28;20085;-61
2022/07/29 02:18:46;;;;;;;5.53;2.25;;;;;;;;;;4966152;28;20038;-61
2022/07/29 02:21:13;;;;;;;8.57;2.15;;;;;;;;;;4965764;28;20044;-60
2022/07/29 02:23:39;;;;;;;8.63;2.20;;;;;;;;;;4967108;28;20107;-61
2022/07/29 02:26:07;;;;;;;7.93;1.98;;;;;;;;;;4968114;28;20101;-62
2022/07/29 02:28:33;;;;;;;7.78;2.13;;;;;;;;;;4968319;28;20134;-61
2022/07/29 02:31:01;;;;;;;5.47;2.10;;;;;;;;;;4967643;28;20141;-61
2022/07/29 02:33:30;;;;;;;7.78;2.30;;;;;;;;;;4967253;28;20860;-61
2022/07/29 02:35:57;;;;;;;10.30;2.10;;;;;;;;;;4968516;28;20047;-61
2022/07/29 02:41:11;;;;;;;6.20;1.92;;;;;;;;;;4966690;28;20054;-61
2022/07/29 02:43:39;;;;;;;9.43;2.25;;;;;;;;;;4967847;28;20054;-61
2022/07/29 02:46:11;;;;;;;7.65;2.10;;;;;;;;;;4968593;28;20537;-59
2022/07/29 02:48:39;;;;;;;7.65;2.10;;;;;;;;;;4967124;28;20042;-62
2022/07/29 02:51:08;;;;;;;6.20;2.30;;;;;;;;;;4966588;28;20456;-62
2022/07/29 02:53:36;;;;;;;6.30;2.05;;;;;;;;;;4966803;28;20050;-61
2022/07/29 02:56:07;;;;;;;5.25;1.98;;;;;;;;;;4967172;28;20504;-59
2022/07/29 02:58:46;;;;;;;8.63;2.22;;;;;;;;;;4967477;28;20035;-61
2022/07/29 03:01:15;;;;;;;5.80;2.40;;;;;;;;;;4966697;28;20153;-61
2022/07/29 03:03:45;;;;;;;7.35;2.40;;;;;;;;;;4967051;28;20054;-61
2022/07/29 03:06:12;;;;;;;7.35;2.28;;;;;;;;;;4967469;28;20153;-61
2022/07/29 03:08:40;;;;;;;9.55;2.28;;;;;;;;;;4966835;28;20352;-61
2022/07/29 03:11:08;;;;;;;4.60;2.15;;;;;;;;;;4967597;28;20046;-62
2022/07/29 03:13:35;;;;;;;4.93;2.13;;;;;;;;;;4966846;28;20096;-61
2022/07/29 03:16:02;;;;;;;14.30;2.42;;;;;;;;;;4969063;28;20070;-61
2022/07/29 03:18:29;;;;;;;5.47;2.15;;;;;;;;;;4966155;28;20042;-61
2022/07/29 03:20:55;;;;;;;7.68;2.20;;;;;;;;;;4964717;28;20034;-61
2022/07/29 03:23:23;;;;;;;6.53;2.05;;;;;;;;;;4967128;28;20324;-60
2022/07/29 03:25:50;;;;;;;7.25;2.10;;;;;;;;;;4967827;28;20184;-61
2022/07/29 03:28:17;;;;;;;10.25;2.55;;;;;;;;;;4968316;28;20046;-62
2022/07/29 03:30:44;;;;;;;7.40;2.20;;;;;;;;;;4967142;28;20039;-61
2022/07/29 03:33:10;;;;;;;4.60;1.98;;;;;;;;;;4966872;28;20035;-61
2022/07/29 03:35:37;;;;;;;12.55;2.20;;;;;;;;;;4965755;28;20045;-61
2022/07/29 03:38:04;;;;;;;5.88;2.35;;;;;;;;;;4966174;28;20097;-61
2022/07/29 03:40:38;;;;;;;7.55;2.38;;;;;;;;;;4964662;28;20050;-61
2022/07/29 03:43:06;;;;;;;4.85;2.30;;;;;;;;;;4951173;28;20397;-61
2022/07/29 03:45:34;;;;;;;7.25;2.58;;;;;;;;;;4966629;28;20050;-60
2022/07/29 03:48:03;;;;;;;6.50;2.50;;;;;;;;;;4966849;28;20077;-61
2022/07/29 03:50:31;;;;;;;9.43;2.40;;;;;;;;;;4965648;28;20053;-62
2022/07/29 03:52:58;;;;;;;13.20;2.83;;;;;;;;;;4967532;28;20046;-61
2022/07/29 03:55:25;;;;;;;10.52;2.60;;;;;;;;;;4965732;28;20101;-61
2022/07/29 03:57:51;;;;;;;12.30;2.80;;;;;;;;;;4968605;28;20047;-61
2022/07/29 04:00:19;;;;;;;11.57;3.28;;;;;;;;;;4966648;28;20039;-61
2022/07/29 04:02:48;;;;;;;14.10;3.42;;;;;;;;;;4966517;28;20069;-60
2022/07/29 04:05:15;;;;;;;8.75;2.88;;;;;;;;;;4966291;28;20030;-61
2022/07/29 04:07:44;;;;;;;8.77;3.15;;;;;;;;;;4966119;28;20070;-61
2022/07/29 04:10:11;;;;;;;9.07;2.90;;;;;;;;;;4966220;28;20563;-61
2022/07/29 04:12:38;;;;;;;9.93;2.78;;;;;;;;;;4965368;28;20035;-61
2022/07/29 04:15:05;;;;;;;9.98;2.60;;;;;;;;;;4966667;28;20191;-61
2022/07/29 04:17:31;;;;;;;10.77;3.17;;;;;;;;;;4963947;28;20042;-62
2022/07/29 04:19:58;;;;;;;12.00;3.25;;;;;;;;;;4965046;28;20042;-61
2022/07/29 04:22:25;;;;;;;8.77;2.85;;;;;;;;;;4965074;28;20125;-60
2022/07/29 04:24:51;;;;;;;11.25;2.63;;;;;;;;;;4962087;28;20034;-60
2022/07/29 04:27:18;;;;;;;8.55;2.63;;;;;;;;;;4963869;28;20038;-61
2022/07/29 04:29:44;;;;;;;9.95;3.20;;;;;;;;;;4963896;28;20097;-61
2022/07/29 04:32:11;;;;;;;7.13;3.30;;;;;;;;;;4965451;28;20141;-62
2022/07/29 04:34:37;;;;;;;6.80;3.03;;;;;;;;;;4964730;28;20050;-60
2022/07/29 04:37:04;;;;;;;8.48;2.85;;;;;;;;;;4964941;28;20031;-60
2022/07/29 04:39:31;;;;;;;13.18;2.70;;;;;;;;;;4965038;28;20050;-59
2022/07/29 04:41:57;;;;;;;5.70;2.30;;;;;;;;;;4966114;28;20100;-60
2022/07/29 04:44:27;;;;;;;7.60;2.53;;;;;;;;;;4964585;28;20042;-61
2022/07/29 04:46:54;;;;;;;8.27;2.55;;;;;;;;;;4957635;28;20047;-62
2022/07/29 04:49:20;;;;;;;10.73;2.50;;;;;;;;;;4960559;28;20043;-64
2022/07/29 04:51:47;;;;;;;7.38;2.55;;;;;;;;;;4965941;28;20035;-63
2022/07/29 04:54:13;;;;;;;6.80;2.28;;;;;;;;;;4963862;28;20476;-62
2022/07/29 04:56:41;;;;;;;8.60;2.20;;;;;;;;;;4965381;28;20050;-64
2022/07/29 04:59:08;;;;;;;6.88;2.53;;;;;;;;;;4963953;28;20451;-65
2022/07/29 05:01:34;;;;;;;7.78;2.70;;;;;;;;;;4965446;28;20556;-60
2022/07/29 05:04:01;;;;;;;9.07;4.32;;;;;;;;;;4965314;28;20796;-63
2022/07/29 05:06:27;;;;;;;9.27;3.20;;;;;;;;;;4966056;28;20514;-63
2022/07/29 05:08:54;;;;;;;9.80;3.35;;;;;;;;;;4959034;28;20054;-61
2022/07/29 05:11:20;;;;;;;9.32;3.33;;;;;;;;;;4964362;28;20066;-61
2022/07/29 05:13:47;;;;;;;9.57;3.38;;;;;;;;;;4968719;28;20043;-61
2022/07/29 05:16:14;;;;;;;11.77;3.30;;;;;;;;;;4967946;28;20137;-60
2022/07/29 05:18:41;;;;;;;11.63;3.10;;;;;;;;;;4968091;28;20038;-62
2022/07/29 05:21:07;;;;;;;15.15;3.40;;;;;;;;;;4951900;28;20050;-60
2022/07/29 05:23:34;;;;;;;8.32;3.30;;;;;;;;;;4969317;28;20142;-60
2022/07/29 05:26:00;;;;;;;8.48;2.65;;;;;;;;;;4970616;28;20035;-60
2022/07/29 05:28:27;;;;;;;12.50;2.83;;;;;;;;;;4969331;28;20088;-62
2022/07/29 05:30:53;;;;;;;7.90;2.65;;;;;;;;;;4969247;28;20042;-60
2022/07/29 05:33:20;;;;;;;6.78;2.75;;;;;;;;;;4969847;28;20042;-61
2022/07/29 05:35:47;;;;;;;9.95;3.05;;;;;;;;;;4952329;28;20038;-60
2022/07/29 05:38:13;;;;;;;10.63;2.88;;;;;;;;;;4970628;28;20046;-63
2022/07/29 05:40:40;;;;;;;8.90;2.80;;;;;;;;;;4969049;28;20104;-61
2022/07/29 05:43:06;;;;;;;8.55;2.60;;;;;;;;;;4970620;28;20171;-60
2022/07/29 05:45:33;;;;;;;8.00;2.67;;;;;;;;;;4969615;28;20130;-60
2022/07/29 05:48:00;;;;;;;11.32;2.85;;;;;;;;;;4970328;28;20496;-62
2022/07/29 05:50:26;;;;;;;7.28;2.55;;;;;;;;;;4951708;28;20047;-59
2022/07/29 05:52:53;;;;;;;10.02;2.90;;;;;;;;;;4970580;28;20045;-61
2022/07/29 05:55:19;;;;;;;7.35;2.67;;;;;;;;;;4970716;28;20058;-61
2022/07/29 05:57:46;;;;;;;7.90;2.50;;;;;;;;;;4967879;28;20530;-61
2022/07/29 06:00:13;;;;;;;12.10;2.88;;;;;;;;;;4969091;28;20909;-61
2022/07/29 06:02:39;;;;;;;7.45;2.70;;;;;;;;;;4968936;28;20148;-59
2022/07/29 06:05:07;;;;;;;13.13;2.75;;;;;;;;;;4970367;28;20039;-61
2022/07/29 06:07:34;;;;;;;6.38;2.47;;;;;;;;;;4969545;28;20179;-59
2022/07/29 06:10:01;;;;;;;7.13;2.20;;;;;;;;;;4969933;28;20057;-60
2022/07/29 06:12:27;;;;;;;5.78;2.30;;;;;;;;;;4969297;28;20043;-60
2022/07/29 06:14:54;;;;;;;5.10;2.17;;;;;;;;;;4971086;28;20027;-60
2022/07/29 06:17:20;;;;;;;7.70;2.55;;;;;;;;;;4971699;28;20125;-60
2022/07/29 06:19:47;;;;;;;5.72;2.30;;;;;;;;;;4971173;28;20065;-63
2022/07/29 06:22:16;;;;;;;5.13;2.25;;;;;;;;;;4974636;28;20118;-61
2022/07/29 06:24:43;;;;;;;7.78;2.63;;;;;;;;;;4969632;28;20047;-61
2022/07/29 06:27:13;;;;;;;6.90;2.50;;;;;;;;;;4953684;28;20129;-63
2022/07/29 06:29:40;;;;;;;4.68;2.05;;;;;;;;;;4940549;28;20327;-62
2022/07/29 06:32:08;;;;;;;5.53;2.55;;;;;;;;;;4969433;28;20121;-60
2022/07/29 06:34:35;;;;;;;4.10;2.05;;;;;;;;;;4965435;28;20660;-60
2022/07/29 06:37:07;;;;;;;5.20;2.13;;;;;;;;;;4941971;28;20070;-63
2022/07/29 06:39:35;;;;;;;5.82;2.45;;;;;;;;;;4969677;28;20137;-58
2022/07/29 06:42:01;;;;;;;9.32;2.20;;;;;;;;;;4971480;28;20034;-59
2022/07/29 06:44:28;;;;;;;10.07;2.60;;;;;;;;;;4969894;28;20134;-61
2022/07/29 06:46:55;;;;;;;5.30;2.20;;;;;;;;;;4971031;28;20039;-60
2022/07/29 06:49:27;;;;;;;5.00;2.20;;;;;;;;;;4966008;28;20046;-60
2022/07/29 06:51:54;;;;;;;5.40;2.17;;;;;;;;;;4968276;28;20069;-61
2022/07/29 06:54:24;;;;;;;7.82;2.50;;;;;;;;;;4968577;28;20146;-59
2022/07/29 06:56:50;;;;;;;9.15;2.30;;;;;;;;;;4967465;28;21715;-61
2022/07/29 06:59:17;;;;;;;6.18;2.40;;;;;;;;;;4967891;28;20046;-61
2022/07/29 07:01:44;;;;;;;8.43;2.30;;;;;;;;;;4966796;28;20169;-61
2022/07/29 07:04:11;;;;;;;4.45;2.15;;;;;;;;;;4968863;28;20081;-61
2022/07/29 07:06:37;;;;;;;7.10;2.30;;;;;;;;;;4968678;28;20045;-61
2022/07/29 07:09:04;;;;;;;6.28;2.35;;;;;;;;;;4966674;28;20062;-61
2022/07/29 07:11:31;;;;;;;6.85;2.25;;;;;;;;;;4968287;28;20038;-60
2022/07/29 07:13:58;;;;;;;6.60;2.40;;;;;;;;;;4969004;28;20038;-61
2022/07/29 07:16:24;;;;;;;7.30;2.50;;;;;;;;;;4938419;28;20042;-61
2022/07/29 07:18:51;;;;;;;6.95;2.15;;;;;;;;;;4965981;28;20049;-61
2022/07/29 07:21:17;;;;;;;4.90;1.98;;;;;;;;;;4967449;28;20038;-61
2022/07/29 07:23:44;;;;;;;7.93;2.17;;;;;;;;;;4966156;28;20093;-61
2022/07/29 07:26:10;;;;;;;6.85;2.30;;;;;;;;;;4969388;28;20039;-61
2022/07/29 07:28:37;;;;;;;7.32;2.35;;;;;;;;;;4967006;28;20493;-61
2022/07/29 07:31:04;;;;;;;7.43;2.15;;;;;;;;;;4967915;28;20780;-61
2022/07/29 07:33:30;;;;;;;8.32;2.75;;;;;;;;;;4968110;28;20101;-61
2022/07/29 07:35:57;;;;;;;10.02;2.50;;;;;;;;;;4966300;28;20038;-61
2022/07/29 07:38:23;;;;;;;8.43;2.40;;;;;;;;;;4968229;28;20053;-61
2022/07/29 07:40:50;;;;;;;4.78;1.95;;;;;;;;;;4967320;28;20034;-61
2022/07/29 07:43:16;;;;;;;8.82;2.60;;;;;;;;;;4968102;28;20048;-61
2022/07/29 07:45:43;;;;;;;8.70;2.55;;;;;;;;;;4966885;28;20042;-60
2022/07/29 07:48:10;;;;;;;10.25;3.03;;;;;;;;;;4966874;28;20039;-61
2022/07/29 07:50:37;;;;;;;7.35;2.65;;;;;;;;;;4965469;28;20102;-61
2022/07/29 07:53:03;;;;;;;6.30;2.00;;;;;;;;;;4967293;28;20117;-61
2022/07/29 07:55:30;;;;;;;7.80;2.65;;;;;;;;;;4966228;28;20078;-61
2022/07/29 07:57:56;;;;;;;6.63;2.40;;;;;;;;;;4967510;28;20043;-61
2022/07/29 08:00:24;;;;;;;7.75;2.28;;;;;;;;;;4966516;28;20074;-61
2022/07/29 08:02:50;;;;;;;10.38;2.58;;;;;;;;;;4967865;28;20046;-61
2022/07/29 08:05:17;;;;;;;10.13;2.50;;;;;;;;;;4968428;28;20031;-61
2022/07/29 08:07:45;;;;;;;7.90;2.22;;;;;;;;;;4968991;28;20361;-60
2022/07/29 08:10:11;;;;;;;5.90;1.85;;;;;;;;;;4968029;28;20038;-61
2022/07/29 08:12:38;;;;;;;6.57;2.30;;;;;;;;;;4966959;28;20034;-61
2022/07/29 08:15:07;;;;;;;6.70;2.47;;;;;;;;;;4969376;28;20069;-60
2022/07/29 08:17:34;;;;;;;8.32;2.78;;;;;;;;;;4966293;28;20246;-61
2022/07/29 08:20:00;;;;;;;12.00;2.30;;;;;;;;;;4966254;28;20093;-60
2022/07/29 08:22:27;;;;;;;7.75;2.42;;;;;;;;;;4968018;28;20109;-59
2022/07/29 08:24:55;;;;;;;6.68;2.20;;;;;;;;;;4965913;28;20133;-60
2022/07/29 08:27:21;;;;;;;8.50;2.15;;;;;;;;;;4966631;28;20038;-61
2022/07/29 08:29:48;;;;;;;10.93;2.30;;;;;;;;;;4966276;28;20042;-61
2022/07/29 08:32:14;;;;;;;5.50;2.45;;;;;;;;;;4966990;28;20046;-60
2022/07/29 08:34:42;;;;;;;11.40;2.88;;;;;;;;;;4966650;28;20046;-60
2022/07/29 08:37:08;;;;;;;8.25;2.70;;;;;;;;;;4967325;28;20120;-60
2022/07/29 08:39:35;;;;;;;6.55;2.63;;;;;;;;;;4966310;28;20051;-60
2022/07/29 08:42:02;;;;;;;7.32;2.75;;;;;;;;;;4967199;28;20038;-61
2022/07/29 08:44:28;;;;;;;9.15;2.90;;;;;;;;;;4966964;28;20084;-61
2022/07/29 08:46:55;;;;;;;5.82;2.50;;;;;;;;;;4966844;28;20062;-61
2022/07/29 08:49:21;;;;;;;8.23;2.75;;;;;;;;;;4968731;28;20392;-62
2022/07/29 08:51:48;;;;;;;6.32;2.60;;;;;;;;;;4970837;28;20073;-60
2022/07/29 08:54:18;;;;;;;5.72;2.65;;;;;;;;;;4969734;28;20062;-59
2022/07/29 08:56:45;;;;;;;9.40;2.53;;;;;;;;;;4970959;28;20077;-61
2022/07/29 08:59:13;;;;;;;5.75;2.28;;;;;;;;;;4969250;28;20720;-61
2022/07/29 09:01:40;;;;;;;9.77;2.70;;;;;;;;;;4968128;28;20129;-60
2022/07/29 09:04:10;;;;;;;9.23;2.72;;;;;;;;;;4951507;28;20042;-61
2022/07/29 09:06:38;;;;;;;9.60;2.60;;;;;;;;;;4968687;28;20102;-61
2022/07/29 09:09:05;;;;;;;6.68;2.83;;;;;;;;;;4971028;28;20484;-60
2022/07/29 09:11:33;;;;;;;9.15;2.72;;;;;;;;;;4971973;28;20043;-60
2022/07/29 09:14:00;;;;;;;9.13;2.88;;;;;;;;;;4970278;28;20035;-60
2022/07/29 09:16:26;;;;;;;10.88;2.95;;;;;;;;;;4970303;28;20518;-59
2022/07/29 09:18:53;;;;;;;6.20;2.85;;;;;;;;;;4970298;28;20428;-60
2022/07/29 09:24:09;;;;;;;7.68;3.10;;;;;;;;;;4971814;28;20217;-60
2022/07/29 09:26:38;;;;;;;7.00;2.83;;;;;;;;;;4968599;28;20077;-59
2022/07/29 09:29:15;;;;;;;7.43;2.92;;;;;;;;;;4951923;28;21121;-60
2022/07/29 09:31:44;;;;;;;6.93;2.97;;;;;;;;;;4970682;28;20062;-60
2022/07/29 09:34:11;;;;;;;14.48;3.03;;;;;;;;;;4972095;28;20050;-60
2022/07/29 09:36:42;;;;;;;9.73;3.25;;;;;;;;;;4971609;28;20065;-62
2022/07/29 09:39:09;;;;;;;10.25;2.72;;;;;;;;;;4973136;28;20042;-60
2022/07/29 09:41:48;;;;;;;8.00;3.40;;;;;;;;;;4972727;28;20939;-60
2022/07/29 09:44:15;;;;;;;6.82;2.88;;;;;;;;;;4971838;28;20058;-61
2022/07/29 09:46:52;;;;;;;6.10;3.03;;;;;;;;;;4970129;28;20050;-60
2022/07/29 09:49:19;;;;;;;6.40;3.17;;;;;;;;;;4969677;28;20381;-60
2022/07/29 09:51:46;;;;;;;10.02;2.72;;;;;;;;;;4966572;28;20051;-60
2022/07/29 09:54:23;;;;;;;9.65;3.38;;;;;;;;;;4968990;28;20114;-59
2022/07/29 09:56:49;;;;;;;9.38;3.13;;;;;;;;;;4967844;28;20407;-60
2022/07/29 09:59:16;;;;;;;8.27;2.78;;;;;;;;;;4970289;28;20030;-60
2022/07/29 10:01:43;;;;;;;8.65;3.33;;;;;;;;;;4968739;28;20204;-61
2022/07/29 10:04:10;;;;;;;7.38;2.92;;;;;;;;;;4968380;28;20054;-60
2022/07/29 10:06:56;;;;;;;7.32;2.83;;;;;;;;;;4968745;28;20042;-59
2022/07/29 10:09:22;;;;;;;7.72;2.83;;;;;;;;;;4967674;28;20050;-61
2022/07/29 10:12:09;;;;;;;7.78;3.17;;;;;;;;;;4968340;28;20053;-60
2022/07/29 10:14:36;;;;;;;11.88;3.40;;;;;;;;;;4967588;28;20049;-61
2022/07/29 10:17:04;;;;;;;8.20;3.60;;;;;;;;;;4969246;28;20038;-58
2022/07/29 10:19:31;;;;;;;12.30;3.17;;;;;;;;;;4968077;28;20476;-58
2022/07/29 10:21:58;;;;;;;8.93;3.35;;;;;;;;;;4968185;28;20166;-58
2022/07/29 10:24:26;;;;;;;8.30;3.30;;;;;;;;;;4966864;28;20045;-59
2022/07/29 10:26:54;;;;;;;7.85;3.33;;;;;;;;;;4968508;28;20049;-61
2022/07/29 10:29:21;;;;;;;8.80;3.47;;;;;;;;;;4968637;28;20042;-60
2022/07/29 10:31:59;;;;;;;8.20;3.35;;;;;;;;;;4970374;28;20047;-59
2022/07/29 10:34:32;;;;;;;10.35;3.28;;;;;;;;;;4967634;28;20042;-59
2022/07/29 10:37:14;;;;;;;8.55;3.03;;;;;;;;;;4969227;28;20568;-59
2022/07/29 10:39:51;;;;;;;10.05;3.15;;;;;;;;;;4967438;28;20043;-59
2022/07/29 10:42:22;;;;;;;9.27;3.25;;;;;;;;;;4970524;28;20054;-60
2022/07/29 10:44:49;;;;;;;8.82;2.75;;;;;;;;;;4951098;28;20500;-58
2022/07/29 10:47:25;;;;;;;6.93;3.28;;;;;;;;;;4969975;28;20047;-59
2022/07/29 10:49:59;;;;;;;8.25;3.38;;;;;;;;;;4968978;28;20149;-61
2022/07/29 10:52:28;;;;;;;8.98;3.92;;;;;;;;;;4968366;28;20053;-59
2022/07/29 10:54:55;;;;;;;9.35;3.50;;;;;;;;;;4968056;28;20399;-59
2022/07/29 10:57:21;;;;;;;8.07;3.40;;;;;;;;;;4967883;28;20407;-59
2022/07/29 11:00:11;;;;;;;9.07;3.67;;;;;;;;;;4969698;28;20038;-61
2022/07/29 11:02:42;;;;;;;9.43;3.50;;;;;;;;;;4967579;28;20075;-59
2022/07/29 11:05:12;;;;;;;10.38;3.55;;;;;;;;;;4967627;28;20047;-62
2022/07/29 11:07:39;;;;;;;7.93;3.03;;;;;;;;;;4966906;28;20113;-61
2022/07/29 11:10:15;;;;;;;9.30;3.25;;;;;;;;;;4967969;28;20053;-61
2022/07/29 11:12:41;;;;;;;8.50;3.55;;;;;;;;;;4967271;28;20057;-61
2022/07/29 11:15:12;;;;;;;6.78;2.92;;;;;;;;;;4949835;28;20035;-61
2022/07/29 11:17:54;;;;;;;8.25;3.50;;;;;;;;;;4968243;28;20129;-61
2022/07/29 11:20:38;;;;;;;8.35;3.50;;;;;;;;;;4968200;28;20101;-60
2022/07/29 11:23:23;;;;;;;8.25;3.47;;;;;;;;;;4966584;28;20519;-61
2022/07/29 11:26:08;;;;;;;7.35;2.80;;;;;;;;;;4967611;28;20042;-62
2022/07/29 11:28:36;;;;;;;9.30;3.40;;;;;;;;;;4966764;28;20193;-61
2022/07/29 11:31:03;;;;;;;12.10;3.65;;;;;;;;;;4968201;28;20038;-60
2022/07/29 11:33:33;;;;;;;13.65;3.65;;;;;;;;;;4967274;28;20043;-60
2022/07/29 11:36:11;;;;;;;8.30;3.35;;;;;;;;;;4950280;28;20054;-59
2022/07/29 11:38:37;;;;;;;12.27;3.80;;;;;;;;;;4967755;28;20303;-60
2022/07/29 11:41:23;;;;;;;12.48;4.03;;;;;;;;;;4968165;28;20121;-62
2022/07/29 11:43:54;;;;;;;10.90;3.58;;;;;;;;;;4947548;28;20878;-60
2022/07/29 11:46:40;;;;;;;6.22;2.95;;;;;;;;;;4967292;28;20050;-62
2022/07/29 11:49:07;;;;;;;8.55;3.80;;;;;;;;;;4967640;28;20045;-61
2022/07/29 11:51:33;;;;;;;12.77;3.55;;;;;;;;;;4966063;28;20042;-60
2022/07/29 11:54:00;;;;;;;8.55;3.33;;;;;;;;;;4966645;28;20039;-59
2022/07/29 11:56:30;;;;;;;11.77;3.42;;;;;;;;;;4966618;28;20050;-61
2022/07/29 11:59:06;;;;;;;9.13;3.58;;;;;;;;;;4967978;28;20043;-60
2022/07/29 12:01:33;;;;;;;11.82;3.67;;;;;;;;;;4966828;28;20054;-59
2022/07/29 12:04:03;;;;;;;10.35;3.88;;;;;;;;;;4968881;28;20050;-59
2022/07/29 12:06:30;;;;;;;9.30;3.55;;;;;;;;;;4969111;28;20061;-59
2022/07/29 12:08:57;;;;;;;8.38;3.45;;;;;;;;;;4971608;28;20376;-62
2022/07/29 12:11:24;;;;;;;8.18;3.85;;;;;;;;;;4968418;28;20043;-61
2022/07/29 12:13:51;;;;;;;7.47;3.47;;;;;;;;;;4968644;28;20046;-61
2022/07/29 12:16:18;;;;;;;7.78;3.88;;;;;;;;;;4968234;28;20053;-60
2022/07/29 12:18:55;;;;;;;10.80;3.33;;;;;;;;;;4969688;28;20066;-60
2022/07/29 12:21:22;;;;;;;7.13;3.20;;;;;;;;;;4968413;28;20042;-61
2022/07/29 12:23:55;;;;;;;16.90;4.15;;;;;;;;;;4967994;28;20053;-59
2022/07/29 12:26:22;;;;;;;11.25;3.60;;;;;;;;;;4953254;28;20069;-59
2022/07/29 12:28:49;;;;;;;14.13;3.72;;;;;;;;;;4971248;28;20045;-60
2022/07/29 12:31:16;;;;;;;16.27;3.92;;;;;;;;;;4969920;28;20061;-62
2022/07/29 12:33:43;;;;;;;12.30;3.63;;;;;;;;;;4965848;28;20137;-60
2022/07/29 12:36:09;;;;;;;11.52;3.83;;;;;;;;;;4967767;28;20403;-60
2022/07/29 12:38:36;;;;;;;7.97;3.22;;;;;;;;;;4937912;28;20533;-62
2022/07/29 12:41:03;;;;;;;11.30;3.97;;;;;;;;;;4968918;28;20582;-60
2022/07/29 12:43:30;;;;;;;8.07;3.55;;;;;;;;;;4968364;28;20503;-60
2022/07/29 12:45:57;;;;;;;10.20;4.20;;;;;;;;;;4967638;28;20606;-62
2022/07/29 12:48:37;;;;;;;15.05;4.38;;;;;;;;;;4964683;28;20150;-62
2022/07/29 12:51:05;;;;;;;13.43;3.40;;;;;;;;;;4966470;28;20054;-62
2022/07/29 12:53:32;;;;;;;16.38;3.60;;;;;;;;;;4965478;28;20052;-60
2022/07/29 12:56:01;;;;;;;8.55;3.47;;;;;;;;;;4966114;28;20039;-60
2022/07/29 12:58:29;;;;;;;8.90;3.47;;;;;;;;;;4966251;28;20047;-62
2022/07/29 13:01:03;;;;;;;14.40;3.90;;;;;;;;;;4952639;28;20061;-60
2022/07/29 13:03:42;;;;;;;10.48;3.42;;;;;;;;;;4965320;28;20296;-60
2022/07/29 13:06:27;;;;;;;11.63;3.33;;;;;;;;;;4964917;28;20034;-59
2022/07/29 13:09:14;;;;;;;11.10;3.13;;;;;;;;;;4967125;28;20046;-60
2022/07/29 13:11:43;;;;;;;9.15;3.45;;;;;;;;;;4966691;28;20566;-61
2022/07/29 13:14:10;;;;;;;10.23;3.55;;;;;;;;;;4966201;28;20509;-60
2022/07/29 13:16:38;;;;;;;11.68;3.30;;;;;;;;;;4966589;28;20034;-61
2022/07/29 13:19:09;;;;;;;14.15;4.55;;;;;;;;;;4967476;28;20049;-60
2022/07/29 13:21:36;;;;;;;13.95;4.20;;;;;;;;;;4947795;28;20074;-60
2022/07/29 13:24:03;;;;;;;10.68;3.65;;;;;;;;;;4964618;28;20661;-59
2022/07/29 13:26:29;;;;;;;11.57;3.95;;;;;;;;;;4964977;28;20073;-61
2022/07/29 13:28:56;;;;;;;17.63;4.30;;;;;;;;;;4965184;28;20053;-60
2022/07/29 13:31:23;;;;;;;21.92;4.68;;;;;;;;;;4964527;28;20497;-61
2022/07/29 13:33:50;;;;;;;19.25;4.60;;;;;;;;;;4964297;28;20042;-60
2022/07/29 13:36:16;;;;;;;28.58;4.35;;;;;;;;;;4968154;28;20092;-62
2022/07/29 13:38:43;;;;;;;15.95;4.10;;;;;;;;;;4969037;28;20133;-60
2022/07/29 13:41:09;;;;;;;10.18;3.97;;;;;;;;;;4969093;28;20034;-61
2022/07/29 13:43:36;;;;;;;14.95;3.97;;;;;;;;;;4967643;28;20078;-61
2022/07/29 13:46:02;;;;;;;15.00;4.65;;;;;;;;;;4968741;28;20050;-60
2022/07/29 13:48:29;;;;;;;9.88;4.07;;;;;;;;;;4967912;28;20050;-59
2022/07/29 13:50:57;;;;;;;14.63;4.28;;;;;;;;;;4968736;28;20506;-60
2022/07/29 13:53:23;;;;;;;11.88;3.40;;;;;;;;;;4967724;28;20376;-61
2022/07/29 13:55:51;;;;;;;10.10;3.70;;;;;;;;;;4968890;28;20034;-59
2022/07/29 13:58:18;;;;;;;16.75;3.65;;;;;;;;;;4968670;28;20439;-61
2022/07/29 14:00:45;;;;;;;16.85;4.15;;;;;;;;;;4968875;28;20447;-61
2022/07/29 14:03:11;;;;;;;15.75;4.35;;;;;;;;;;4938627;28;20063;-61
2022/07/29 14:05:38;;;;;;;13.90;3.90;;;;;;;;;;4966458;28;20039;-61
2022/07/29 14:08:05;;;;;;;11.15;3.75;;;;;;;;;;4966785;28;20157;-60
2022/07/29 14:10:31;;;;;;;10.20;3.65;;;;;;;;;;4947829;28;20065;-59
2022/07/29 14:12:58;;;;;;;13.00;3.70;;;;;;;;;;4968242;28;20416;-60
2022/07/29 14:15:24;;;;;;;11.98;3.90;;;;;;;;;;4967086;28;20100;-60
2022/07/29 14:17:51;;;;;;;13.15;3.28;;;;;;;;;;4967557;28;20054;-60
2022/07/29 14:20:18;;;;;;;8.40;3.70;;;;;;;;;;4966877;28;20126;-60
2022/07/29 14:22:44;;;;;;;14.40;3.80;;;;;;;;;;4968075;28;20053;-60
2022/07/29 14:25:11;;;;;;;9.80;3.72;;;;;;;;;;4967479;28;20046;-60
2022/07/29 14:27:37;;;;;;;9.23;3.72;;;;;;;;;;4967209;28;20050;-60
2022/07/29 14:30:04;;;;;;;10.48;4.20;;;;;;;;;;4968693;28;20563;-59
2022/07/29 14:32:31;;;;;;;11.13;3.92;;;;;;;;;;4965389;28;20088;-60
2022/07/29 14:34:57;;;;;;;14.60;3.85;;;;;;;;;;4967294;28;20140;-60
2022/07/29 14:37:24;;;;;;;10.27;3.50;;;;;;;;;;4966344;28;20035;-60
2022/07/29 14:39:50;;;;;;;9.82;3.15;;;;;;;;;;4967832;28;20074;-60
2022/07/29 14:42:17;;;;;;;8.80;3.33;;;;;;;;;;4967418;28;20055;-60
2022/07/29 14:44:44;;;;;;;15.10;3.88;;;;;;;;;;4964885;28;20116;-60
2022/07/29 14:47:10;;;;;;;10.90;3.75;;;;;;;;;;4967759;28;20045;-60
2022/07/29 14:49:37;;;;;;;12.55;3.53;;;;;;;;;;4965164;28;20443;-60
2022/07/29 14:52:04;;;;;;;12.40;3.40;;;;;;;;;;4966818;28;20050;-60
2022/07/29 14:54:30;;;;;;;10.60;3.60;;;;;;;;;;4964869;28;20049;-60